sensor_id;sensor_type;location;lat;lon;timestamp;pressure;altitude;pressure_sealevel;temperature
13219;BMP180;6674;49.152;11.918;2023-04-20T00:02:10;95954.44;;;6.10
13219;BMP180;6674;49.152;11.918;2023-04-20T00:04:40;95943.41;;;6.09
13219;BMP180;6674;49.152;11.918;2023-04-20T00:07:07;95946.16;;;6.08
13219;BMP180;6674;49.152;11.918;2023-04-20T00:09:34;95951.41;;;6.00
13219;BMP180;6674;49.152;11.918;2023-04-20T00:12:01;95936.06;;;6.00
13219;BMP180;6674;49.152;11.918;2023-04-20T00:14:27;95936.47;;;5.97
13219;BMP180;6674;49.152;11.918;2023-04-20T00:16:54;95932.31;;;5.96
13219;BMP180;6674;49.152;11.918;2023-04-20T00:19:21;95926.78;;;5.93
13219;BMP180;6674;49.152;11.918;2023-04-20T00:21:49;95922.81;;;5.90
13219;BMP180;6674;49.152;11.918;2023-04-20T00:24:17;95920.25;;;5.90
13219;BMP180;6674;49.152;11.918;2023-04-20T00:26:43;95932.44;;;5.88
13219;BMP180;6674;49.152;11.918;2023-04-20T00:29:10;95919.22;;;5.85
13219;BMP180;6674;49.152;11.918;2023-04-20T00:31:36;95916.84;;;5.83
13219;BMP180;6674;49.152;11.918;2023-04-20T00:34:03;95911.31;;;5.80
13219;BMP180;6674;49.152;11.918;2023-04-20T00:36:30;95906.22;;;5.80
13219;BMP180;6674;49.152;11.918;2023-04-20T00:38:58;95905.25;;;5.81
13219;BMP180;6674;49.152;11.918;2023-04-20T00:41:25;95902.88;;;5.79
13219;BMP180;6674;49.152;11.918;2023-04-20T00:43:52;95898.91;;;5.77
13219;BMP180;6674;49.152;11.918;2023-04-20T00:46:19;95905.53;;;5.71
13219;BMP180;6674;49.152;11.918;2023-04-20T00:48:47;95895.84;;;5.67
13219;BMP180;6674;49.152;11.918;2023-04-20T00:51:15;95905.50;;;5.65
13219;BMP180;6674;49.152;11.918;2023-04-20T00:53:42;95896.16;;;5.57
13219;BMP180;6674;49.152;11.918;2023-04-20T00:56:11;95895.34;;;5.51
13219;BMP180;6674;49.152;11.918;2023-04-20T00:58:38;95898.44;;;5.46
13219;BMP180;6674;49.152;11.918;2023-04-20T01:01:05;95891.31;;;5.42
13219;BMP180;6674;49.152;11.918;2023-04-20T01:03:31;95896.66;;;5.40
13219;BMP180;6674;49.152;11.918;2023-04-20T01:05:58;95895.59;;;5.35
13219;BMP180;6674;49.152;11.918;2023-04-20T01:08:26;95886.91;;;5.29
13219;BMP180;6674;49.152;11.918;2023-04-20T01:10:53;95891.44;;;5.27
13219;BMP180;6674;49.152;11.918;2023-04-20T01:13:22;95890.78;;;5.25
13219;BMP180;6674;49.152;11.918;2023-04-20T01:15:48;95886.84;;;5.23
13219;BMP180;6674;49.152;11.918;2023-04-20T01:18:15;95880.16;;;5.22
13219;BMP180;6674;49.152;11.918;2023-04-20T01:20:43;95868.72;;;5.18
13219;BMP180;6674;49.152;11.918;2023-04-20T01:23:12;95873.00;;;5.11
13219;BMP180;6674;49.152;11.918;2023-04-20T01:25:39;95870.56;;;5.03
13219;BMP180;6674;49.152;11.918;2023-04-20T01:28:05;95871.34;;;5.04
13219;BMP180;6674;49.152;11.918;2023-04-20T01:30:33;95868.19;;;5.02
13219;BMP180;6674;49.152;11.918;2023-04-20T01:33:00;95863.44;;;4.99
13219;BMP180;6674;49.152;11.918;2023-04-20T01:35:27;95865.03;;;5.00
13219;BMP180;6674;49.152;11.918;2023-04-20T01:37:53;95874.44;;;4.99
13219;BMP180;6674;49.152;11.918;2023-04-20T01:40:22;95871.88;;;4.99
13219;BMP180;6674;49.152;11.918;2023-04-20T01:42:48;95864.22;;;4.99
13219;BMP180;6674;49.152;11.918;2023-04-20T01:45:15;95867.13;;;4.96
13219;BMP180;6674;49.152;11.918;2023-04-20T01:47:41;95868.91;;;4.96
13219;BMP180;6674;49.152;11.918;2023-04-20T01:50:08;95861.84;;;4.98
13219;BMP180;6674;49.152;11.918;2023-04-20T01:52:35;95861.44;;;4.94
13219;BMP180;6674;49.152;11.918;2023-04-20T01:55:02;95857.50;;;4.92
13219;BMP180;6674;49.152;11.918;2023-04-20T01:57:30;95853.88;;;4.86
13219;BMP180;6674;49.152;11.918;2023-04-20T01:59:56;95855.41;;;4.81
13219;BMP180;6674;49.152;11.918;2023-04-20T02:02:23;95857.97;;;4.81
13219;BMP180;6674;49.152;11.918;2023-04-20T02:04:50;95849.50;;;4.80
13219;BMP180;6674;49.152;11.918;2023-04-20T02:07:17;95859.75;;;4.80
13219;BMP180;6674;49.152;11.918;2023-04-20T02:09:44;95856.56;;;4.78
13219;BMP180;6674;49.152;11.918;2023-04-20T02:12:10;95848.88;;;4.78
13219;BMP180;6674;49.152;11.918;2023-04-20T02:14:39;95853.41;;;4.76
13219;BMP180;6674;49.152;11.918;2023-04-20T02:17:05;95851.84;;;4.75
13219;BMP180;6674;49.152;11.918;2023-04-20T02:19:32;95853.56;;;4.75
13219;BMP180;6674;49.152;11.918;2023-04-20T02:21:59;95854.75;;;4.72
13219;BMP180;6674;49.152;11.918;2023-04-20T02:24:25;95857.28;;;4.72
13219;BMP180;6674;49.152;11.918;2023-04-20T02:26:52;95852.19;;;4.72
13219;BMP180;6674;49.152;11.918;2023-04-20T02:29:19;95845.47;;;4.71
13219;BMP180;6674;49.152;11.918;2023-04-20T02:31:47;95842.75;;;4.73
13219;BMP180;6674;49.152;11.918;2023-04-20T02:34:14;95851.59;;;4.71
13219;BMP180;6674;49.152;11.918;2023-04-20T02:36:40;95848.41;;;4.69
13219;BMP180;6674;49.152;11.918;2023-04-20T02:39:07;95845.25;;;4.67
13219;BMP180;6674;49.152;11.918;2023-04-20T02:41:34;95848.97;;;4.64
13219;BMP180;6674;49.152;11.918;2023-04-20T02:44:01;95841.13;;;4.66
13219;BMP180;6674;49.152;11.918;2023-04-20T02:46:28;95838.13;;;4.62
13219;BMP180;6674;49.152;11.918;2023-04-20T02:48:56;95834.78;;;4.62
13219;BMP180;6674;49.152;11.918;2023-04-20T02:51:23;95851.06;;;4.61
13219;BMP180;6674;49.152;11.918;2023-04-20T02:53:49;95839.03;;;4.55
13219;BMP180;6674;49.152;11.918;2023-04-20T02:56:16;95838.25;;;4.54
13219;BMP180;6674;49.152;11.918;2023-04-20T02:58:43;95840.34;;;4.51
13219;BMP180;6674;49.152;11.918;2023-04-20T03:01:10;95839.75;;;4.49
13219;BMP180;6674;49.152;11.918;2023-04-20T03:03:40;95835.06;;;4.52
13219;BMP180;6674;49.152;11.918;2023-04-20T03:06:08;95840.00;;;4.54
13219;BMP180;6674;49.152;11.918;2023-04-20T03:08:35;95838.06;;;4.56
13219;BMP180;6674;49.152;11.918;2023-04-20T03:11:02;95840.59;;;4.56
13219;BMP180;6674;49.152;11.918;2023-04-20T03:13:28;95840.25;;;4.59
13219;BMP180;6674;49.152;11.918;2023-04-20T03:15:55;95841.06;;;4.59
13219;BMP180;6674;49.152;11.918;2023-04-20T03:18:22;95842.19;;;4.57
13219;BMP180;6674;49.152;11.918;2023-04-20T03:20:48;95839.22;;;4.53
13219;BMP180;6674;49.152;11.918;2023-04-20T03:23:16;95840.00;;;4.54
13219;BMP180;6674;49.152;11.918;2023-04-20T03:25:43;95837.63;;;4.52
13219;BMP180;6674;49.152;11.918;2023-04-20T03:28:10;95837.81;;;4.51
13219;BMP180;6674;49.152;11.918;2023-04-20T03:30:37;95839.75;;;4.49
13219;BMP180;6674;49.152;11.918;2023-04-20T03:33:04;95833.19;;;4.40
13219;BMP180;6674;49.152;11.918;2023-04-20T03:35:31;95839.44;;;4.37
13219;BMP180;6674;49.152;11.918;2023-04-20T03:37:57;95833.78;;;4.42
13219;BMP180;6674;49.152;11.918;2023-04-20T03:40:27;95837.31;;;4.41
13219;BMP180;6674;49.152;11.918;2023-04-20T03:42:54;95840.03;;;4.39
13219;BMP180;6674;49.152;11.918;2023-04-20T03:45:20;95836.69;;;4.39
13219;BMP180;6674;49.152;11.918;2023-04-20T03:47:47;95827.44;;;4.38
13219;BMP180;6674;49.152;11.918;2023-04-20T03:50:14;95832.19;;;4.41
13219;BMP180;6674;49.152;11.918;2023-04-20T03:52:40;95840.44;;;4.36
13219;BMP180;6674;49.152;11.918;2023-04-20T03:55:08;95836.44;;;4.34
13219;BMP180;6674;49.152;11.918;2023-04-20T03:57:36;95836.81;;;4.31
13219;BMP180;6674;49.152;11.918;2023-04-20T04:00:04;95828.66;;;4.21
13219;BMP180;6674;49.152;11.918;2023-04-20T04:02:31;95830.00;;;4.17
13219;BMP180;6674;49.152;11.918;2023-04-20T04:04:58;95830.94;;;4.16
13219;BMP180;6674;49.152;11.918;2023-04-20T04:07:25;95836.66;;;4.18
13219;BMP180;6674;49.152;11.918;2023-04-20T04:09:55;95831.38;;;4.20
13219;BMP180;6674;49.152;11.918;2023-04-20T04:12:22;95831.03;;;4.23
13219;BMP180;6674;49.152;11.918;2023-04-20T04:14:53;95828.81;;;4.20
13219;BMP180;6674;49.152;11.918;2023-04-20T04:17:20;95833.75;;;4.21
13219;BMP180;6674;49.152;11.918;2023-04-20T04:19:47;95833.75;;;4.21
13219;BMP180;6674;49.152;11.918;2023-04-20T04:22:13;95837.25;;;4.20
13219;BMP180;6674;49.152;11.918;2023-04-20T04:24:40;95839.47;;;4.23
13219;BMP180;6674;49.152;11.918;2023-04-20T04:27:07;95835.59;;;4.27
13219;BMP180;6674;49.152;11.918;2023-04-20T04:29:35;95835.59;;;4.27
13219;BMP180;6674;49.152;11.918;2023-04-20T04:32:04;95839.38;;;4.31
13219;BMP180;6674;49.152;11.918;2023-04-20T04:34:31;95829.75;;;4.33
13219;BMP180;6674;49.152;11.918;2023-04-20T04:36:58;95836.09;;;4.37
13219;BMP180;6674;49.152;11.918;2023-04-20T04:39:26;95825.88;;;4.37
13219;BMP180;6674;49.152;11.918;2023-04-20T04:41:52;95828.44;;;4.37
13219;BMP180;6674;49.152;11.918;2023-04-20T04:44:19;95829.03;;;4.39
13219;BMP180;6674;49.152;11.918;2023-04-20T04:46:46;95825.28;;;4.35
13219;BMP180;6674;49.152;11.918;2023-04-20T04:49:14;95828.63;;;4.35
13219;BMP180;6674;49.152;11.918;2023-04-20T04:51:41;95840.22;;;4.38
13219;BMP180;6674;49.152;11.918;2023-04-20T04:54:07;95824.72;;;4.39
13219;BMP180;6674;49.152;11.918;2023-04-20T04:56:34;95837.72;;;4.44
13219;BMP180;6674;49.152;11.918;2023-04-20T04:59:00;95837.56;;;4.46
13219;BMP180;6674;49.152;11.918;2023-04-20T05:01:27;95842.47;;;4.47
13219;BMP180;6674;49.152;11.918;2023-04-20T05:03:54;95837.44;;;4.54
13219;BMP180;6674;49.152;11.918;2023-04-20T05:06:22;95837.69;;;4.59
13219;BMP180;6674;49.152;11.918;2023-04-20T05:08:49;95828.88;;;4.61
13219;BMP180;6674;49.152;11.918;2023-04-20T05:11:15;95836.38;;;4.63
13219;BMP180;6674;49.152;11.918;2023-04-20T05:13:42;95834.84;;;4.68
13219;BMP180;6674;49.152;11.918;2023-04-20T05:16:09;95838.19;;;4.69
13219;BMP180;6674;49.152;11.918;2023-04-20T05:18:35;95831.75;;;4.72
13219;BMP180;6674;49.152;11.918;2023-04-20T05:21:02;95838.41;;;4.73
13219;BMP180;6674;49.152;11.918;2023-04-20T05:23:30;95836.91;;;4.79
13219;BMP180;6674;49.152;11.918;2023-04-20T05:25:57;95843.41;;;4.81
13219;BMP180;6674;49.152;11.918;2023-04-20T05:28:23;95838.31;;;4.81
13219;BMP180;6674;49.152;11.918;2023-04-20T05:30:51;95845.19;;;4.81
13219;BMP180;6674;49.152;11.918;2023-04-20T05:33:19;95842.09;;;4.85
13219;BMP180;6674;49.152;11.918;2023-04-20T05:35:46;95840.69;;;4.83
13219;BMP180;6674;49.152;11.918;2023-04-20T05:38:13;95833.78;;;4.83
13219;BMP180;6674;49.152;11.918;2023-04-20T05:40:41;95838.13;;;4.83
13219;BMP180;6674;49.152;11.918;2023-04-20T05:43:08;95841.09;;;4.86
13219;BMP180;6674;49.152;11.918;2023-04-20T05:45:34;95842.34;;;4.90
13219;BMP180;6674;49.152;11.918;2023-04-20T05:48:01;95840.03;;;4.95
13219;BMP180;6674;49.152;11.918;2023-04-20T05:50:27;95840.63;;;4.97
13219;BMP180;6674;49.152;11.918;2023-04-20T05:52:54;95833.53;;;4.99
13219;BMP180;6674;49.152;11.918;2023-04-20T05:55:23;95840.25;;;5.00
13219;BMP180;6674;49.152;11.918;2023-04-20T05:57:52;95844.19;;;5.03
13219;BMP180;6674;49.152;11.918;2023-04-20T06:00:19;95842.09;;;5.06
13219;BMP180;6674;49.152;11.918;2023-04-20T06:02:46;95840.66;;;5.04
13219;BMP180;6674;49.152;11.918;2023-04-20T06:05:13;95853.28;;;5.05
13219;BMP180;6674;49.152;11.918;2023-04-20T06:07:39;95845.78;;;5.04
13219;BMP180;6674;49.152;11.918;2023-04-20T06:10:07;95849.94;;;5.05
13219;BMP180;6674;49.152;11.918;2023-04-20T06:12:33;95848.16;;;5.05
13219;BMP180;6674;49.152;11.918;2023-04-20T06:15:01;95845.84;;;5.10
13219;BMP180;6674;49.152;11.918;2023-04-20T06:17:30;95840.38;;;5.13
13219;BMP180;6674;49.152;11.918;2023-04-20T06:19:59;95841.19;;;5.20
13219;BMP180;6674;49.152;11.918;2023-04-20T06:22:26;95842.03;;;5.27
13219;BMP180;6674;49.152;11.918;2023-04-20T06:24:53;95852.13;;;5.35
13219;BMP180;6674;49.152;11.918;2023-04-20T06:27:20;95837.19;;;5.38
13219;BMP180;6674;49.152;11.918;2023-04-20T06:29:46;95844.91;;;5.45
13219;BMP180;6674;49.152;11.918;2023-04-20T06:32:15;95842.59;;;5.50
13219;BMP180;6674;49.152;11.918;2023-04-20T06:34:42;95840.44;;;5.53
13219;BMP180;6674;49.152;11.918;2023-04-20T06:37:09;95841.69;;;5.63
13219;BMP180;6674;49.152;11.918;2023-04-20T06:39:36;95847.06;;;5.68
13219;BMP180;6674;49.152;11.918;2023-04-20T06:42:02;95840.22;;;5.75
13219;BMP180;6674;49.152;11.918;2023-04-20T06:44:29;95842.03;;;5.81
13219;BMP180;6674;49.152;11.918;2023-04-20T06:46:56;95847.19;;;5.88
13219;BMP180;6674;49.152;11.918;2023-04-20T06:49:24;95847.00;;;5.89
13219;BMP180;6674;49.152;11.918;2023-04-20T06:51:51;95845.84;;;5.98
13219;BMP180;6674;49.152;11.918;2023-04-20T06:54:18;95837.81;;;6.01
13219;BMP180;6674;49.152;11.918;2023-04-20T06:56:44;95835.28;;;6.14
13219;BMP180;6674;49.152;11.918;2023-04-20T06:59:11;95837.50;;;6.23
13219;BMP180;6674;49.152;11.918;2023-04-20T07:01:40;95830.84;;;6.35
13219;BMP180;6674;49.152;11.918;2023-04-20T07:04:06;95842.28;;;6.45
13219;BMP180;6674;49.152;11.918;2023-04-20T07:06:34;95849.81;;;6.53
13219;BMP180;6674;49.152;11.918;2023-04-20T07:09:01;95830.69;;;6.49
13219;BMP180;6674;49.152;11.918;2023-04-20T07:11:28;95834.06;;;6.56
13219;BMP180;6674;49.152;11.918;2023-04-20T07:13:55;95831.31;;;6.64
13219;BMP180;6674;49.152;11.918;2023-04-20T07:16:21;95838.81;;;6.72
13219;BMP180;6674;49.152;11.918;2023-04-20T07:18:48;95832.94;;;6.78
13219;BMP180;6674;49.152;11.918;2023-04-20T07:21:15;95838.28;;;6.89
13219;BMP180;6674;49.152;11.918;2023-04-20T07:23:43;95829.97;;;6.94
13219;BMP180;6674;49.152;11.918;2023-04-20T07:26:09;95828.63;;;6.98
13219;BMP180;6674;49.152;11.918;2023-04-20T07:28:36;95829.00;;;7.08
13219;BMP180;6674;49.152;11.918;2023-04-20T07:31:03;95837.28;;;7.16
13219;BMP180;6674;49.152;11.918;2023-04-20T07:33:30;95837.28;;;7.16
13219;BMP180;6674;49.152;11.918;2023-04-20T07:35:56;95840.44;;;7.25
13219;BMP180;6674;49.152;11.918;2023-04-20T07:38:23;95836.72;;;7.27
13219;BMP180;6674;49.152;11.918;2023-04-20T07:40:51;95844.41;;;7.33
13219;BMP180;6674;49.152;11.918;2023-04-20T07:43:18;95828.19;;;7.39
13219;BMP180;6674;49.152;11.918;2023-04-20T07:45:45;95833.34;;;7.39
13219;BMP180;6674;49.152;11.918;2023-04-20T07:48:12;95825.44;;;7.34
13219;BMP180;6674;49.152;11.918;2023-04-20T07:50:39;95830.56;;;7.34
13219;BMP180;6674;49.152;11.918;2023-04-20T07:53:06;95834.16;;;7.33
13219;BMP180;6674;49.152;11.918;2023-04-20T07:55:32;95838.84;;;7.36
13219;BMP180;6674;49.152;11.918;2023-04-20T07:58:00;95832.75;;;7.37
13219;BMP180;6674;49.152;11.918;2023-04-20T08:00:27;95824.84;;;7.39
13219;BMP180;6674;49.152;11.918;2023-04-20T08:02:54;95831.34;;;7.48
13219;BMP180;6674;49.152;11.918;2023-04-20T08:05:21;95827.78;;;7.55
13219;BMP180;6674;49.152;11.918;2023-04-20T08:07:48;95822.28;;;7.58
13219;BMP180;6674;49.152;11.918;2023-04-20T08:10:15;95812.19;;;7.63
13219;BMP180;6674;49.152;11.918;2023-04-20T08:12:42;95815.53;;;7.70
13219;BMP180;6674;49.152;11.918;2023-04-20T08:15:10;95814.16;;;7.74
13219;BMP180;6674;49.152;11.918;2023-04-20T08:17:38;95819.47;;;7.79
13219;BMP180;6674;49.152;11.918;2023-04-20T08:20:06;95813.50;;;7.91
13219;BMP180;6674;49.152;11.918;2023-04-20T08:22:34;95817.44;;;8.00
13219;BMP180;6674;49.152;11.918;2023-04-20T08:25:01;95821.16;;;8.11
13219;BMP180;6674;49.152;11.918;2023-04-20T08:27:28;95813.47;;;8.11
13219;BMP180;6674;49.152;11.918;2023-04-20T08:29:54;95817.00;;;8.16
13219;BMP180;6674;49.152;11.918;2023-04-20T08:32:23;95811.84;;;8.22
13219;BMP180;6674;49.152;11.918;2023-04-20T08:34:51;95814.59;;;8.27
13219;BMP180;6674;49.152;11.918;2023-04-20T08:37:18;95811.25;;;8.20
13219;BMP180;6674;49.152;11.918;2023-04-20T08:39:45;95807.88;;;8.20
13219;BMP180;6674;49.152;11.918;2023-04-20T08:42:11;95804.72;;;8.24
13219;BMP180;6674;49.152;11.918;2023-04-20T08:44:38;95804.38;;;8.15
13219;BMP180;6674;49.152;11.918;2023-04-20T08:47:07;95812.66;;;8.17
13219;BMP180;6674;49.152;11.918;2023-04-20T08:49:36;95801.19;;;8.13
13219;BMP180;6674;49.152;11.918;2023-04-20T08:52:04;95812.06;;;8.15
13219;BMP180;6674;49.152;11.918;2023-04-20T08:54:31;95800.00;;;8.09
13219;BMP180;6674;49.152;11.918;2023-04-20T08:56:58;95808.31;;;8.11
13219;BMP180;6674;49.152;11.918;2023-04-20T08:59:26;95804.38;;;8.08
13219;BMP180;6674;49.152;11.918;2023-04-20T09:01:52;95810.69;;;8.12
13219;BMP180;6674;49.152;11.918;2023-04-20T09:04:20;95803.19;;;8.11
13219;BMP180;6674;49.152;11.918;2023-04-20T09:06:50;95804.94;;;8.10
13219;BMP180;6674;49.152;11.918;2023-04-20T09:09:17;95800.41;;;8.06
13219;BMP180;6674;49.152;11.918;2023-04-20T09:11:44;95808.91;;;8.13
13219;BMP180;6674;49.152;11.918;2023-04-20T09:14:12;95806.09;;;8.20
13219;BMP180;6674;49.152;11.918;2023-04-20T09:16:47;95809.84;;;8.24
13219;BMP180;6674;49.152;11.918;2023-04-20T09:19:14;95801.75;;;8.27
13219;BMP180;6674;49.152;11.918;2023-04-20T09:21:48;95801.31;;;8.30
13219;BMP180;6674;49.152;11.918;2023-04-20T09:24:15;95804.28;;;8.34
13219;BMP180;6674;49.152;11.918;2023-04-20T09:26:43;95797.75;;;8.31
13219;BMP180;6674;49.152;11.918;2023-04-20T09:29:15;95790.22;;;8.36
13219;BMP180;6674;49.152;11.918;2023-04-20T09:31:42;95799.31;;;8.39
13219;BMP180;6674;49.152;11.918;2023-04-20T09:34:09;95793.75;;;8.42
13219;BMP180;6674;49.152;11.918;2023-04-20T09:36:36;95793.13;;;8.46
13219;BMP180;6674;49.152;11.918;2023-04-20T09:39:07;95790.19;;;8.43
13219;BMP180;6674;49.152;11.918;2023-04-20T09:41:34;95789.38;;;8.49
13219;BMP180;6674;49.152;11.918;2023-04-20T09:44:01;95787.41;;;8.44
13219;BMP180;6674;49.152;11.918;2023-04-20T09:46:29;95787.53;;;8.56
13219;BMP180;6674;49.152;11.918;2023-04-20T09:48:57;95790.31;;;8.54
13219;BMP180;6674;49.152;11.918;2023-04-20T09:51:25;95787.13;;;8.59
13219;BMP180;6674;49.152;11.918;2023-04-20T09:53:57;95790.09;;;8.62
13219;BMP180;6674;49.152;11.918;2023-04-20T09:56:26;95778.78;;;8.63
13219;BMP180;6674;49.152;11.918;2023-04-20T09:58:53;95779.22;;;8.60
13219;BMP180;6674;49.152;11.918;2023-04-20T10:01:21;95786.94;;;8.60
13219;BMP180;6674;49.152;11.918;2023-04-20T10:03:48;95778.25;;;8.55
13219;BMP180;6674;49.152;11.918;2023-04-20T10:06:19;95787.19;;;8.52
13219;BMP180;6674;49.152;11.918;2023-04-20T10:08:47;95782.81;;;8.53
13219;BMP180;6674;49.152;11.918;2023-04-20T10:11:30;95776.91;;;8.52
13219;BMP180;6674;49.152;11.918;2023-04-20T10:13:58;95783.19;;;8.56
13219;BMP180;6674;49.152;11.918;2023-04-20T10:16:26;95762.78;;;8.61
13219;BMP180;6674;49.152;11.918;2023-04-20T10:18:57;95760.97;;;8.68
13219;BMP180;6674;49.152;11.918;2023-04-20T10:21:28;95757.34;;;8.75
13219;BMP180;6674;49.152;11.918;2023-04-20T10:24:10;95747.22;;;8.80
13219;BMP180;6674;49.152;11.918;2023-04-20T10:26:40;95748.13;;;8.92
13219;BMP180;6674;49.152;11.918;2023-04-20T10:29:07;95742.50;;;9.02
13219;BMP180;6674;49.152;11.918;2023-04-20T10:31:34;95730.59;;;9.07
13219;BMP180;6674;49.152;11.918;2023-04-20T10:34:02;95733.69;;;9.15
13219;BMP180;6674;49.152;11.918;2023-04-20T10:36:30;95737.97;;;9.21
13219;BMP180;6674;49.152;11.918;2023-04-20T10:38:58;95736.50;;;9.32
13219;BMP180;6674;49.152;11.918;2023-04-20T10:41:26;95733.88;;;9.38
13219;BMP180;6674;49.152;11.918;2023-04-20T10:43:53;95726.66;;;9.46
13219;BMP180;6674;49.152;11.918;2023-04-20T10:46:22;95720.66;;;9.52
13219;BMP180;6674;49.152;11.918;2023-04-20T10:48:50;95715.22;;;9.60
13219;BMP180;6674;49.152;11.918;2023-04-20T10:51:17;95723.00;;;9.72
13219;BMP180;6674;49.152;11.918;2023-04-20T10:53:43;95718.78;;;9.77
13219;BMP180;6674;49.152;11.918;2023-04-20T10:56:10;95705.69;;;9.79
13219;BMP180;6674;49.152;11.918;2023-04-20T10:58:37;95702.56;;;9.77
13219;BMP180;6674;49.152;11.918;2023-04-20T11:01:06;95698.44;;;9.87
13219;BMP180;6674;49.152;11.918;2023-04-20T11:03:32;95685.34;;;9.88
13219;BMP180;6674;49.152;11.918;2023-04-20T11:06:00;95683.72;;;9.94
13219;BMP180;6674;49.152;11.918;2023-04-20T11:08:41;95683.34;;;9.90
13219;BMP180;6674;49.152;11.918;2023-04-20T11:11:18;95685.66;;;9.98
13219;BMP180;6674;49.152;11.918;2023-04-20T11:13:45;95668.94;;;10.01
13219;BMP180;6674;49.152;11.918;2023-04-20T11:16:14;95653.16;;;9.97
13219;BMP180;6674;49.152;11.918;2023-04-20T11:18:48;95648.13;;;10.02
13219;BMP180;6674;49.152;11.918;2023-04-20T11:21:16;95652.50;;;10.02
13219;BMP180;6674;49.152;11.918;2023-04-20T11:23:43;95658.00;;;10.05
13219;BMP180;6674;49.152;11.918;2023-04-20T11:26:10;95660.44;;;10.00
13219;BMP180;6674;49.152;11.918;2023-04-20T11:28:36;95653.59;;;9.94
13219;BMP180;6674;49.152;11.918;2023-04-20T11:31:04;95654.94;;;9.97
13219;BMP180;6674;49.152;11.918;2023-04-20T11:33:32;95655.84;;;10.02
13219;BMP180;6674;49.152;11.918;2023-04-20T11:35:59;95661.00;;;10.02
13219;BMP180;6674;49.152;11.918;2023-04-20T11:38:30;95646.25;;;10.09
13219;BMP180;6674;49.152;11.918;2023-04-20T11:40:57;95660.41;;;10.18
13219;BMP180;6674;49.152;11.918;2023-04-20T11:43:29;95660.09;;;10.26
13219;BMP180;6674;49.152;11.918;2023-04-20T11:45:55;95646.66;;;10.35
13219;BMP180;6674;49.152;11.918;2023-04-20T11:48:22;95645.03;;;10.64
13219;BMP180;6674;49.152;11.918;2023-04-20T11:50:51;95641.78;;;11.14
13219;BMP180;6674;49.152;11.918;2023-04-20T11:53:18;95637.53;;;11.69
13219;BMP180;6674;49.152;11.918;2023-04-20T11:55:45;95648.81;;;12.19
13219;BMP180;6674;49.152;11.918;2023-04-20T11:58:11;95636.84;;;12.46
13219;BMP180;6674;49.152;11.918;2023-04-20T12:00:38;95645.72;;;12.49
13219;BMP180;6674;49.152;11.918;2023-04-20T12:03:05;95649.09;;;12.66
13219;BMP180;6674;49.152;11.918;2023-04-20T12:05:31;95641.59;;;12.81
13219;BMP180;6674;49.152;11.918;2023-04-20T12:08:00;95638.22;;;12.81
13219;BMP180;6674;49.152;11.918;2023-04-20T12:10:26;95634.19;;;12.73
13219;BMP180;6674;49.152;11.918;2023-04-20T12:12:53;95633.66;;;12.71
13219;BMP180;6674;49.152;11.918;2023-04-20T12:15:21;95632.97;;;12.76
13219;BMP180;6674;49.152;11.918;2023-04-20T12:17:47;95638.22;;;12.81
13219;BMP180;6674;49.152;11.918;2023-04-20T12:20:14;95649.97;;;12.72
13219;BMP180;6674;49.152;11.918;2023-04-20T12:22:41;95632.72;;;12.77
13219;BMP180;6674;49.152;11.918;2023-04-20T12:25:09;95640.25;;;12.79
13219;BMP180;6674;49.152;11.918;2023-04-20T12:27:36;95641.09;;;12.68
13219;BMP180;6674;49.152;11.918;2023-04-20T12:30:03;95628.47;;;12.71
13219;BMP180;6674;49.152;11.918;2023-04-20T12:32:30;95623.63;;;12.75
13219;BMP180;6674;49.152;11.918;2023-04-20T12:34:57;95620.31;;;12.79
13219;BMP180;6674;49.152;11.918;2023-04-20T12:37:24;95621.09;;;12.96
13219;BMP180;6674;49.152;11.918;2023-04-20T12:39:51;95608.00;;;13.40
13219;BMP180;6674;49.152;11.918;2023-04-20T12:42:20;95606.69;;;13.85
13219;BMP180;6674;49.152;11.918;2023-04-20T12:44:46;95608.22;;;14.28
13219;BMP180;6674;49.152;11.918;2023-04-20T12:47:13;95599.69;;;14.33
13219;BMP180;6674;49.152;11.918;2023-04-20T12:49:40;95594.56;;;14.12
13219;BMP180;6674;49.152;11.918;2023-04-20T12:52:07;95604.25;;;14.00
13219;BMP180;6674;49.152;11.918;2023-04-20T12:54:34;95606.94;;;14.05
13219;BMP180;6674;49.152;11.918;2023-04-20T12:57:00;95592.25;;;14.41
13219;BMP180;6674;49.152;11.918;2023-04-20T12:59:29;95590.63;;;14.67
13219;BMP180;6674;49.152;11.918;2023-04-20T13:01:56;95588.09;;;14.71
13219;BMP180;6674;49.152;11.918;2023-04-20T13:04:22;95587.06;;;14.77
13219;BMP180;6674;49.152;11.918;2023-04-20T13:06:49;95586.31;;;14.82
13219;BMP180;6674;49.152;11.918;2023-04-20T13:09:16;95584.34;;;14.99
13219;BMP180;6674;49.152;11.918;2023-04-20T13:11:42;95583.59;;;15.03
13219;BMP180;6674;49.152;11.918;2023-04-20T13:14:09;95587.34;;;15.17
13219;BMP180;6674;49.152;11.918;2023-04-20T13:16:37;95586.09;;;15.24
13219;BMP180;6674;49.152;11.918;2023-04-20T13:19:04;95586.84;;;15.25
13219;BMP180;6674;49.152;11.918;2023-04-20T13:21:30;95594.97;;;15.33
13219;BMP180;6674;49.152;11.918;2023-04-20T13:23:58;95580.41;;;15.32
13219;BMP180;6674;49.152;11.918;2023-04-20T13:26:25;95586.13;;;15.34
13219;BMP180;6674;49.152;11.918;2023-04-20T13:28:52;95589.28;;;15.41
13219;BMP180;6674;49.152;11.918;2023-04-20T13:31:21;95594.72;;;15.35
13219;BMP180;6674;49.152;11.918;2023-04-20T13:33:49;95581.38;;;15.21
13219;BMP180;6674;49.152;11.918;2023-04-20T13:36:19;95577.03;;;14.91
13219;BMP180;6674;49.152;11.918;2023-04-20T13:38:46;95571.06;;;14.90
13219;BMP180;6674;49.152;11.918;2023-04-20T13:41:14;95570.28;;;14.90
13219;BMP180;6674;49.152;11.918;2023-04-20T13:43:42;95570.47;;;14.78
13219;BMP180;6674;49.152;11.918;2023-04-20T13:46:09;95577.03;;;14.55
13219;BMP180;6674;49.152;11.918;2023-04-20T13:48:37;95574.13;;;14.46
13219;BMP180;6674;49.152;11.918;2023-04-20T13:51:05;95568.94;;;14.46
13219;BMP180;6674;49.152;11.918;2023-04-20T13:53:32;95564.78;;;14.50
13219;BMP180;6674;49.152;11.918;2023-04-20T13:56:00;95565.09;;;14.54
13219;BMP180;6674;49.152;11.918;2023-04-20T13:58:28;95564.09;;;14.60
13219;BMP180;6674;49.152;11.918;2023-04-20T14:00:55;95570.56;;;14.57
13219;BMP180;6674;49.152;11.918;2023-04-20T14:03:23;95567.66;;;14.49
13219;BMP180;6674;49.152;11.918;2023-04-20T14:05:50;95566.34;;;14.46
13219;BMP180;6674;49.152;11.918;2023-04-20T14:08:18;95571.06;;;14.54
13219;BMP180;6674;49.152;11.918;2023-04-20T14:10:47;95566.38;;;14.51
13219;BMP180;6674;49.152;11.918;2023-04-20T14:13:14;95571.81;;;14.50
13219;BMP180;6674;49.152;11.918;2023-04-20T14:15:41;95573.63;;;14.49
13219;BMP180;6674;49.152;11.918;2023-04-20T14:18:07;95562.72;;;14.47
13219;BMP180;6674;49.152;11.918;2023-04-20T14:20:34;95573.59;;;14.44